sensor_id;sensor_type;location;lat;lon;timestamp;temperature;humidity
14097;DHT22;7125;48.106;11.544;2023-02-01T00:02:13;3.80;99.90
14097;DHT22;7125;48.106;11.544;2023-02-01T00:04:39;3.80;99.90
14097;DHT22;7125;48.106;11.544;2023-02-01T00:07:06;3.80;99.90
14097;DHT22;7125;48.106;11.544;2023-02-01T00:09:33;3.90;99.90
14097;DHT22;7125;48.106;11.544;2023-02-01T00:12:00;3.90;99.90
14097;DHT22;7125;48.106;11.544;2023-02-01T00:14:29;3.90;99.90
14097;DHT22;7125;48.106;11.544;2023-02-01T00:17:01;3.90;99.90
14097;DHT22;7125;48.106;11.544;2023-02-01T00:19:31;3.90;99.90
14097;DHT22;7125;48.106;11.544;2023-02-01T00:21:58;3.90;99.90
14097;DHT22;7125;48.106;11.544;2023-02-01T00:24:26;3.90;99.90
14097;DHT22;7125;48.106;11.544;2023-02-01T00:26:53;3.90;99.90
14097;DHT22;7125;48.106;11.544;2023-02-01T00:29:20;4.00;99.90
14097;DHT22;7125;48.106;11.544;2023-02-01T00:31:50;4.00;99.90
14097;DHT22;7125;48.106;11.544;2023-02-01T00:34:17;3.90;99.90
14097;DHT22;7125;48.106;11.544;2023-02-01T00:36:46;4.00;99.90
14097;DHT22;7125;48.106;11.544;2023-02-01T00:39:13;4.00;99.90
14097;DHT22;7125;48.106;11.544;2023-02-01T00:41:40;4.00;99.90
14097;DHT22;7125;48.106;11.544;2023-02-01T00:44:07;3.90;99.90
14097;DHT22;7125;48.106;11.544;2023-02-01T00:46:35;3.90;99.90
14097;DHT22;7125;48.106;11.544;2023-02-01T00:49:03;3.80;99.90
14097;DHT22;7125;48.106;11.544;2023-02-01T00:51:32;3.70;99.90
14097;DHT22;7125;48.106;11.544;2023-02-01T00:54:01;3.70;99.90
14097;DHT22;7125;48.106;11.544;2023-02-01T00:56:29;3.50;99.90
14097;DHT22;7125;48.106;11.544;2023-02-01T00:58:56;3.50;99.90
14097;DHT22;7125;48.106;11.544;2023-02-01T01:01:25;3.40;99.90
14097;DHT22;7125;48.106;11.544;2023-02-01T01:03:55;3.30;99.90
14097;DHT22;7125;48.106;11.544;2023-02-01T01:06:24;3.20;99.90
14097;DHT22;7125;48.106;11.544;2023-02-01T01:08:51;3.00;99.90
14097;DHT22;7125;48.106;11.544;2023-02-01T01:11:23;2.90;99.90
14097;DHT22;7125;48.106;11.544;2023-02-01T01:13:51;2.90;99.90
14097;DHT22;7125;48.106;11.544;2023-02-01T01:16:20;2.80;99.90
14097;DHT22;7125;48.106;11.544;2023-02-01T01:18:48;2.70;99.90
14097;DHT22;7125;48.106;11.544;2023-02-01T01:21:16;2.70;99.90
14097;DHT22;7125;48.106;11.544;2023-02-01T01:23:45;2.70;99.90
14097;DHT22;7125;48.106;11.544;2023-02-01T01:26:15;2.60;99.90
14097;DHT22;7125;48.106;11.544;2023-02-01T01:28:44;2.70;99.90
14097;DHT22;7125;48.106;11.544;2023-02-01T01:31:13;2.80;99.90
14097;DHT22;7125;48.106;11.544;2023-02-01T01:33:41;2.80;99.90
14097;DHT22;7125;48.106;11.544;2023-02-01T01:36:11;2.80;99.90
14097;DHT22;7125;48.106;11.544;2023-02-01T01:38:38;2.80;99.90
14097;DHT22;7125;48.106;11.544;2023-02-01T01:41:06;2.70;99.90
14097;DHT22;7125;48.106;11.544;2023-02-01T01:43:54;2.70;99.90
14097;DHT22;7125;48.106;11.544;2023-02-01T01:46:25;2.70;99.90
14097;DHT22;7125;48.106;11.544;2023-02-01T01:49:00;2.70;99.90
14097;DHT22;7125;48.106;11.544;2023-02-01T01:51:31;2.70;99.90
14097;DHT22;7125;48.106;11.544;2023-02-01T01:54:04;2.70;99.90
14097;DHT22;7125;48.106;11.544;2023-02-01T01:56:33;2.70;99.90
14097;DHT22;7125;48.106;11.544;2023-02-01T01:59:04;2.70;99.90
14097;DHT22;7125;48.106;11.544;2023-02-01T02:01:31;2.70;99.90
14097;DHT22;7125;48.106;11.544;2023-02-01T02:03:59;2.60;99.90
14097;DHT22;7125;48.106;11.544;2023-02-01T02:06:41;2.60;99.90
14097;DHT22;7125;48.106;11.544;2023-02-01T02:09:14;2.60;99.90
14097;DHT22;7125;48.106;11.544;2023-02-01T02:11:42;2.60;99.90
14097;DHT22;7125;48.106;11.544;2023-02-01T02:14:12;2.60;99.90
14097;DHT22;7125;48.106;11.544;2023-02-01T02:19:55;2.50;99.90
14097;DHT22;7125;48.106;11.544;2023-02-01T02:22:40;2.60;99.90
14097;DHT22;7125;48.106;11.544;2023-02-01T02:28:35;2.60;99.90
14097;DHT22;7125;48.106;11.544;2023-02-01T02:31:24;2.70;99.90
14097;DHT22;7125;48.106;11.544;2023-02-01T02:34:03;2.70;99.90
14097;DHT22;7125;48.106;11.544;2023-02-01T02:36:39;2.70;99.90
14097;DHT22;7125;48.106;11.544;2023-02-01T02:39:17;2.80;99.90
14097;DHT22;7125;48.106;11.544;2023-02-01T02:41:51;2.80;99.90
14097;DHT22;7125;48.106;11.544;2023-02-01T02:44:46;2.80;99.90
14097;DHT22;7125;48.106;11.544;2023-02-01T02:47:35;2.80;99.90
14097;DHT22;7125;48.106;11.544;2023-02-01T02:50:12;2.80;99.90
14097;DHT22;7125;48.106;11.544;2023-02-01T02:53:03;2.90;99.90
14097;DHT22;7125;48.106;11.544;2023-02-01T02:55:50;2.90;99.90
14097;DHT22;7125;48.106;11.544;2023-02-01T02:58:19;2.90;99.90
14097;DHT22;7125;48.106;11.544;2023-02-01T03:01:06;2.90;99.90
14097;DHT22;7125;48.106;11.544;2023-02-01T03:03:50;2.90;99.90
14097;DHT22;7125;48.106;11.544;2023-02-01T03:06:37;3.00;99.90
14097;DHT22;7125;48.106;11.544;2023-02-01T03:09:10;2.90;99.90
14097;DHT22;7125;48.106;11.544;2023-02-01T03:11:42;3.00;99.90
14097;DHT22;7125;48.106;11.544;2023-02-01T03:14:28;3.00;99.90
14097;DHT22;7125;48.106;11.544;2023-02-01T03:17:00;3.00;99.90
14097;DHT22;7125;48.106;11.544;2023-02-01T03:19:34;3.00;99.90
14097;DHT22;7125;48.106;11.544;2023-02-01T03:22:09;3.10;99.90
14097;DHT22;7125;48.106;11.544;2023-02-01T03:24:41;3.10;99.90
14097;DHT22;7125;48.106;11.544;2023-02-01T03:27:16;3.20;99.90
14097;DHT22;7125;48.106;11.544;2023-02-01T03:29:48;3.20;99.90
14097;DHT22;7125;48.106;11.544;2023-02-01T03:32:17;3.20;99.90
14097;DHT22;7125;48.106;11.544;2023-02-01T03:34:45;3.30;99.90
14097;DHT22;7125;48.106;11.544;2023-02-01T03:37:17;3.30;99.90
14097;DHT22;7125;48.106;11.544;2023-02-01T03:39:49;3.30;99.90
14097;DHT22;7125;48.106;11.544;2023-02-01T03:42:23;3.30;99.90
14097;DHT22;7125;48.106;11.544;2023-02-01T03:44:54;3.30;99.90
14097;DHT22;7125;48.106;11.544;2023-02-01T03:47:27;3.30;99.90
14097;DHT22;7125;48.106;11.544;2023-02-01T03:49:59;3.30;99.90
14097;DHT22;7125;48.106;11.544;2023-02-01T03:52:34;3.30;99.90
14097;DHT22;7125;48.106;11.544;2023-02-01T03:55:05;3.30;99.90
14097;DHT22;7125;48.106;11.544;2023-02-01T03:57:35;3.40;99.90
14097;DHT22;7125;48.106;11.544;2023-02-01T04:00:07;3.40;99.90
14097;DHT22;7125;48.106;11.544;2023-02-01T04:02:39;3.40;99.90
14097;DHT22;7125;48.106;11.544;2023-02-01T04:05:08;3.40;99.90
14097;DHT22;7125;48.106;11.544;2023-02-01T04:07:37;3.40;99.90
14097;DHT22;7125;48.106;11.544;2023-02-01T04:10:05;3.40;99.90
14097;DHT22;7125;48.106;11.544;2023-02-01T04:12:32;3.40;99.90
14097;DHT22;7125;48.106;11.544;2023-02-01T04:14:59;3.40;99.90
14097;DHT22;7125;48.106;11.544;2023-02-01T04:17:27;3.40;99.90
14097;DHT22;7125;48.106;11.544;2023-02-01T04:19:54;3.40;99.90
14097;DHT22;7125;48.106;11.544;2023-02-01T04:22:21;3.50;99.90
14097;DHT22;7125;48.106;11.544;2023-02-01T04:24:50;3.50;99.90
14097;DHT22;7125;48.106;11.544;2023-02-01T04:27:17;3.50;99.90
14097;DHT22;7125;48.106;11.544;2023-02-01T04:29:44;3.50;99.90
14097;DHT22;7125;48.106;11.544;2023-02-01T04:32:12;3.60;99.90
14097;DHT22;7125;48.106;11.544;2023-02-01T04:34:39;3.50;99.90
14097;DHT22;7125;48.106;11.544;2023-02-01T04:37:06;3.50;99.90
14097;DHT22;7125;48.106;11.544;2023-02-01T04:39:33;3.50;99.90
14097;DHT22;7125;48.106;11.544;2023-02-01T04:42:02;3.50;99.90
14097;DHT22;7125;48.106;11.544;2023-02-01T04:44:29;3.50;99.90
14097;DHT22;7125;48.106;11.544;2023-02-01T04:46:56;3.50;99.90
14097;DHT22;7125;48.106;11.544;2023-02-01T04:49:23;3.40;99.90
14097;DHT22;7125;48.106;11.544;2023-02-01T04:51:51;3.40;99.90
14097;DHT22;7125;48.106;11.544;2023-02-01T04:54:18;3.40;99.90
14097;DHT22;7125;48.106;11.544;2023-02-01T04:56:45;3.50;99.90
14097;DHT22;7125;48.106;11.544;2023-02-01T04:59:13;3.50;99.90
14097;DHT22;7125;48.106;11.544;2023-02-01T05:01:40;3.50;99.90
14097;DHT22;7125;48.106;11.544;2023-02-01T05:04:07;3.50;99.90
14097;DHT22;7125;48.106;11.544;2023-02-01T05:06:34;3.60;99.90
14097;DHT22;7125;48.106;11.544;2023-02-01T05:09:01;3.50;99.90
14097;DHT22;7125;48.106;11.544;2023-02-01T05:11:28;3.50;99.90
14097;DHT22;7125;48.106;11.544;2023-02-01T05:14:14;3.50;99.90
14097;DHT22;7125;48.106;11.544;2023-02-01T05:16:41;3.50;99.90
14097;DHT22;7125;48.106;11.544;2023-02-01T05:19:08;3.50;99.90
14097;DHT22;7125;48.106;11.544;2023-02-01T05:21:35;3.50;99.90
14097;DHT22;7125;48.106;11.544;2023-02-01T05:24:02;3.50;99.90
14097;DHT22;7125;48.106;11.544;2023-02-01T05:26:42;3.50;99.90
14097;DHT22;7125;48.106;11.544;2023-02-01T05:29:10;3.50;99.90
14097;DHT22;7125;48.106;11.544;2023-02-01T05:31:38;3.60;99.90
14097;DHT22;7125;48.106;11.544;2023-02-01T05:34:06;3.50;99.90
14097;DHT22;7125;48.106;11.544;2023-02-01T05:36:33;3.50;99.90
14097;DHT22;7125;48.106;11.544;2023-02-01T05:39:00;3.50;99.90
14097;DHT22;7125;48.106;11.544;2023-02-01T05:41:28;3.50;99.90
14097;DHT22;7125;48.106;11.544;2023-02-01T05:43:55;3.60;99.90
14097;DHT22;7125;48.106;11.544;2023-02-01T05:46:22;3.50;99.90
14097;DHT22;7125;48.106;11.544;2023-02-01T05:48:51;3.50;99.90
14097;DHT22;7125;48.106;11.544;2023-02-01T05:51:19;3.60;99.90
14097;DHT22;7125;48.106;11.544;2023-02-01T05:53:46;3.50;99.90
14097;DHT22;7125;48.106;11.544;2023-02-01T05:56:13;3.50;99.90
14097;DHT22;7125;48.106;11.544;2023-02-01T05:58:40;3.50;99.90
14097;DHT22;7125;48.106;11.544;2023-02-01T06:01:07;3.60;99.90
14097;DHT22;7125;48.106;11.544;2023-02-01T06:03:35;3.50;99.90
14097;DHT22;7125;48.106;11.544;2023-02-01T06:06:05;3.50;99.90
14097;DHT22;7125;48.106;11.544;2023-02-01T06:08:32;3.50;99.90
14097;DHT22;7125;48.106;11.544;2023-02-01T06:10:59;3.60;99.90
14097;DHT22;7125;48.106;11.544;2023-02-01T06:13:26;3.50;99.90
14097;DHT22;7125;48.106;11.544;2023-02-01T06:15:53;3.60;99.90
14097;DHT22;7125;48.106;11.544;2023-02-01T06:18:21;3.60;99.90
14097;DHT22;7125;48.106;11.544;2023-02-01T06:20:52;3.60;99.90
14097;DHT22;7125;48.106;11.544;2023-02-01T06:23:21;3.60;99.90
14097;DHT22;7125;48.106;11.544;2023-02-01T06:25:50;3.60;99.90
14097;DHT22;7125;48.106;11.544;2023-02-01T06:28:16;3.60;99.90
14097;DHT22;7125;48.106;11.544;2023-02-01T06:30:43;3.60;99.90
14097;DHT22;7125;48.106;11.544;2023-02-01T06:33:13;3.50;99.90
14097;DHT22;7125;48.106;11.544;2023-02-01T06:35:41;3.60;99.90
14097;DHT22;7125;48.106;11.544;2023-02-01T06:38:11;3.60;99.90
14097;DHT22;7125;48.106;11.544;2023-02-01T06:40:40;3.70;99.90
14097;DHT22;7125;48.106;11.544;2023-02-01T06:43:07;3.70;99.90
14097;DHT22;7125;48.106;11.544;2023-02-01T06:45:34;3.70;99.90
14097;DHT22;7125;48.106;11.544;2023-02-01T06:48:01;3.70;99.90
14097;DHT22;7125;48.106;11.544;2023-02-01T06:50:28;3.70;99.90
14097;DHT22;7125;48.106;11.544;2023-02-01T06:52:56;3.70;99.90
14097;DHT22;7125;48.106;11.544;2023-02-01T06:55:23;3.80;99.90
14097;DHT22;7125;48.106;11.544;2023-02-01T06:57:54;3.80;99.90
14097;DHT22;7125;48.106;11.544;2023-02-01T07:00:22;3.80;99.90
14097;DHT22;7125;48.106;11.544;2023-02-01T07:02:49;3.70;99.90
14097;DHT22;7125;48.106;11.544;2023-02-01T07:05:16;3.70;99.90
14097;DHT22;7125;48.106;11.544;2023-02-01T07:07:44;3.70;99.90
14097;DHT22;7125;48.106;11.544;2023-02-01T07:10:11;3.70;99.90
14097;DHT22;7125;48.106;11.544;2023-02-01T07:12:38;3.70;99.90
14097;DHT22;7125;48.106;11.544;2023-02-01T07:15:07;3.80;99.90
14097;DHT22;7125;48.106;11.544;2023-02-01T07:17:34;3.80;99.90
14097;DHT22;7125;48.106;11.544;2023-02-01T07:20:01;3.80;99.90
14097;DHT22;7125;48.106;11.544;2023-02-01T07:22:28;3.90;99.90
14097;DHT22;7125;48.106;11.544;2023-02-01T07:24:55;3.90;99.90
14097;DHT22;7125;48.106;11.544;2023-02-01T07:27:22;3.90;99.90
14097;DHT22;7125;48.106;11.544;2023-02-01T07:29:51;3.90;99.90
14097;DHT22;7125;48.106;11.544;2023-02-01T07:32:19;3.90;99.90
14097;DHT22;7125;48.106;11.544;2023-02-01T07:34:46;3.90;99.90
14097;DHT22;7125;48.106;11.544;2023-02-01T07:37:13;3.90;99.90
14097;DHT22;7125;48.106;11.544;2023-02-01T07:39:40;3.90;99.90
14097;DHT22;7125;48.106;11.544;2023-02-01T07:42:07;3.90;99.90
14097;DHT22;7125;48.106;11.544;2023-02-01T07:44:34;4.00;99.90
14097;DHT22;7125;48.106;11.544;2023-02-01T07:47:01;4.00;99.90
14097;DHT22;7125;48.106;11.544;2023-02-01T07:49:29;4.00;99.90
14097;DHT22;7125;48.106;11.544;2023-02-01T07:51:56;4.00;99.90
14097;DHT22;7125;48.106;11.544;2023-02-01T07:54:23;4.00;99.90
14097;DHT22;7125;48.106;11.544;2023-02-01T07:56:50;4.10;99.90
14097;DHT22;7125;48.106;11.544;2023-02-01T07:59:17;4.10;99.90
14097;DHT22;7125;48.106;11.544;2023-02-01T08:01:44;4.10;99.90
14097;DHT22;7125;48.106;11.544;2023-02-01T08:04:12;4.10;99.90
14097;DHT22;7125;48.106;11.544;2023-02-01T08:06:40;4.10;99.90
14097;DHT22;7125;48.106;11.544;2023-02-01T08:09:08;4.20;99.90
14097;DHT22;7125;48.106;11.544;2023-02-01T08:11:36;4.30;99.90
14097;DHT22;7125;48.106;11.544;2023-02-01T08:14:04;4.30;99.90
14097;DHT22;7125;48.106;11.544;2023-02-01T08:16:32;4.30;99.90
14097;DHT22;7125;48.106;11.544;2023-02-01T08:19:00;4.40;99.90
14097;DHT22;7125;48.106;11.544;2023-02-01T08:21:28;4.40;99.90
14097;DHT22;7125;48.106;11.544;2023-02-01T08:24:04;4.40;99.90
14097;DHT22;7125;48.106;11.544;2023-02-01T08:26:31;4.40;99.90
14097;DHT22;7125;48.106;11.544;2023-02-01T08:29:00;4.40;99.90
14097;DHT22;7125;48.106;11.544;2023-02-01T08:31:29;4.50;99.90
14097;DHT22;7125;48.106;11.544;2023-02-01T08:33:57;4.50;99.90
14097;DHT22;7125;48.106;11.544;2023-02-01T08:36:26;4.60;99.90
14097;DHT22;7125;48.106;11.544;2023-02-01T08:38:54;4.60;99.90
14097;DHT22;7125;48.106;11.544;2023-02-01T08:41:24;4.60;99.90
14097;DHT22;7125;48.106;11.544;2023-02-01T08:43:51;4.60;99.90
14097;DHT22;7125;48.106;11.544;2023-02-01T08:46:20;4.60;99.90
14097;DHT22;7125;48.106;11.544;2023-02-01T08:48:47;4.70;99.90
14097;DHT22;7125;48.106;11.544;2023-02-01T08:51:17;4.70;99.90
14097;DHT22;7125;48.106;11.544;2023-02-01T08:53:45;4.80;99.90
14097;DHT22;7125;48.106;11.544;2023-02-01T08:56:13;4.80;99.90
14097;DHT22;7125;48.106;11.544;2023-02-01T08:58:42;4.90;99.90
14097;DHT22;7125;48.106;11.544;2023-02-01T09:01:12;4.90;99.90
14097;DHT22;7125;48.106;11.544;2023-02-01T09:03:39;4.90;99.90
14097;DHT22;7125;48.106;11.544;2023-02-01T09:06:09;5.00;99.90
14097;DHT22;7125;48.106;11.544;2023-02-01T09:08:37;5.00;99.90
14097;DHT22;7125;48.106;11.544;2023-02-01T09:11:06;5.00;99.90
14097;DHT22;7125;48.106;11.544;2023-02-01T09:13:34;5.00;99.90
14097;DHT22;7125;48.106;11.544;2023-02-01T09:16:03;5.00;99.90
14097;DHT22;7125;48.106;11.544;2023-02-01T09:18:30;5.00;99.90
14097;DHT22;7125;48.106;11.544;2023-02-01T09:20:57;5.10;99.90
14097;DHT22;7125;48.106;11.544;2023-02-01T09:23:24;5.10;99.90
14097;DHT22;7125;48.106;11.544;2023-02-01T09:25:52;5.20;99.90
14097;DHT22;7125;48.106;11.544;2023-02-01T09:28:19;5.20;99.90
14097;DHT22;7125;48.106;11.544;2023-02-01T09:30:46;5.30;99.90
14097;DHT22;7125;48.106;11.544;2023-02-01T09:33:14;5.30;99.90
14097;DHT22;7125;48.106;11.544;2023-02-01T09:35:43;5.30;99.90
14097;DHT22;7125;48.106;11.544;2023-02-01T09:38:10;5.40;99.90
14097;DHT22;7125;48.106;11.544;2023-02-01T09:40:47;5.40;99.90
14097;DHT22;7125;48.106;11.544;2023-02-01T09:43:24;5.50;99.90
14097;DHT22;7125;48.106;11.544;2023-02-01T09:46:04;5.50;99.90
14097;DHT22;7125;48.106;11.544;2023-02-01T09:48:39;5.60;99.90
14097;DHT22;7125;48.106;11.544;2023-02-01T09:51:14;5.60;99.90
14097;DHT22;7125;48.106;11.544;2023-02-01T09:53:46;5.60;99.90
14097;DHT22;7125;48.106;11.544;2023-02-01T09:56:18;5.70;99.90
14097;DHT22;7125;48.106;11.544;2023-02-01T09:58:52;5.70;99.90
14097;DHT22;7125;48.106;11.544;2023-02-01T10:01:24;5.70;99.90
14097;DHT22;7125;48.106;11.544;2023-02-01T10:03:59;5.60;99.90
14097;DHT22;7125;48.106;11.544;2023-02-01T10:06:36;5.60;99.90
14097;DHT22;7125;48.106;11.544;2023-02-01T10:09:21;5.60;99.90
14097;DHT22;7125;48.106;11.544;2023-02-01T10:12:11;5.60;99.90
14097;DHT22;7125;48.106;11.544;2023-02-01T10:14:51;5.60;99.90
14097;DHT22;7125;48.106;11.544;2023-02-01T10:17:31;5.60;99.90
14097;DHT22;7125;48.106;11.544;2023-02-01T10:20:12;5.60;99.90
14097;DHT22;7125;48.106;11.544;2023-02-01T10:22:46;5.60;99.90
14097;DHT22;7125;48.106;11.544;2023-02-01T10:25:17;5.60;99.90
14097;DHT22;7125;48.106;11.544;2023-02-01T10:27:49;5.60;99.90
14097;DHT22;7125;48.106;11.544;2023-02-01T10:30:20;5.60;99.90
14097;DHT22;7125;48.106;11.544;2023-02-01T10:32:50;5.70;99.90
14097;DHT22;7125;48.106;11.544;2023-02-01T10:35:24;5.70;99.90
14097;DHT22;7125;48.106;11.544;2023-02-01T10:37:54;5.60;99.90
14097;DHT22;7125;48.106;11.544;2023-02-01T10:40:24;5.60;99.90
14097;DHT22;7125;48.106;11.544;2023-02-01T10:42:53;5.60;99.90
14097;DHT22;7125;48.106;11.544;2023-02-01T10:45:22;5.60;99.90
14097;DHT22;7125;48.106;11.544;2023-02-01T10:47:54;5.60;99.90
14097;DHT22;7125;48.106;11.544;2023-02-01T10:50:33;5.60;99.90
14097;DHT22;7125;48.106;11.544;2023-02-01T10:53:04;5.70;99.90
14097;DHT22;7125;48.106;11.544;2023-02-01T10:55:37;5.70;99.90
14097;DHT22;7125;48.106;11.544;2023-02-01T10:58:19;5.70;99.90
14097;DHT22;7125;48.106;11.544;2023-02-01T11:00:49;5.70;99.90
14097;DHT22;7125;48.106;11.544;2023-02-01T11:03:22;5.70;99.90
14097;DHT22;7125;48.106;11.544;2023-02-01T11:05:58;5.70;99.90
14097;DHT22;7125;48.106;11.544;2023-02-01T11:08:26;5.70;99.90
14097;DHT22;7125;48.106;11.544;2023-02-01T11:10:58;5.60;99.90
14097;DHT22;7125;48.106;11.544;2023-02-01T11:13:29;5.60;99.90
14097;DHT22;7125;48.106;11.544;2023-02-01T11:15:56;5.50;99.90
14097;DHT22;7125;48.106;11.544;2023-02-01T11:18:28;5.50;99.90
14097;DHT22;7125;48.106;11.544;2023-02-01T11:20:56;5.50;99.90
14097;DHT22;7125;48.106;11.544;2023-02-01T11:23:25;5.60;99.90
14097;DHT22;7125;48.106;11.544;2023-02-01T11:25:55;5.60;99.90
14097;DHT22;7125;48.106;11.544;2023-02-01T11:28:24;5.70;99.90
14097;DHT22;7125;48.106;11.544;2023-02-01T11:30:54;5.70;99.90
14097;DHT22;7125;48.106;11.544;2023-02-01T11:33:25;5.70;99.90
14097;DHT22;7125;48.106;11.544;2023-02-01T11:36:00;5.60;99.90
14097;DHT22;7125;48.106;11.544;2023-02-01T11:38:31;5.50;99.90
14097;DHT22;7125;48.106;11.544;2023-02-01T11:41:12;5.50;99.90
14097;DHT22;7125;48.106;11.544;2023-02-01T11:43:52;5.40;99.90
14097;DHT22;7125;48.106;11.544;2023-02-01T11:46:21;5.40;99.90
14097;DHT22;7125;48.106;11.544;2023-02-01T11:48:52;5.30;99.90
14097;DHT22;7125;48.106;11.544;2023-02-01T11:51:34;5.30;99.90
14097;DHT22;7125;48.106;11.544;2023-02-01T11:54:14;5.30;99.90
14097;DHT22;7125;48.106;11.544;2023-02-01T11:56:51;5.30;99.90
14097;DHT22;7125;48.106;11.544;2023-02-01T11:59:33;5.30;99.90
14097;DHT22;7125;48.106;11.544;2023-02-01T12:02:22;5.30;99.90
14097;DHT22;7125;48.106;11.544;2023-02-01T12:05:24;5.30;99.90
14097;DHT22;7125;48.106;11.544;2023-02-01T12:08:15;5.30;99.90
14097;DHT22;7125;48.106;11.544;2023-02-01T12:10:54;5.20;99.90
14097;DHT22;7125;48.106;11.544;2023-02-01T12:13:35;5.20;99.90
14097;DHT22;7125;48.106;11.544;2023-02-01T12:16:15;5.20;99.90
14097;DHT22;7125;48.106;11.544;2023-02-01T12:19:06;5.30;99.90
14097;DHT22;7125;48.106;11.544;2023-02-01T12:21:49;5.30;99.90
14097;DHT22;7125;48.106;11.544;2023-02-01T12:27:45;5.40;99.90
14097;DHT22;7125;48.106;11.544;2023-02-01T12:30:35;5.30;99.90
14097;DHT22;7125;48.106;11.544;2023-02-01T12:33:11;5.30;99.90
14097;DHT22;7125;48.106;11.544;2023-02-01T12:35:51;5.20;99.90
14097;DHT22;7125;48.106;11.544;2023-02-01T12:38:39;5.10;99.90
14097;DHT22;7125;48.106;11.544;2023-02-01T12:44:11;4.90;99.90
14097;DHT22;7125;48.106;11.544;2023-02-01T12:46:43;4.80;99.90
14097;DHT22;7125;48.106;11.544;2023-02-01T12:49:14;4.80;99.90
14097;DHT22;7125;48.106;11.544;2023-02-01T12:51:47;4.90;99.90
14097;DHT22;7125;48.106;11.544;2023-02-01T12:54:20;4.90;99.90
14097;DHT22;7125;48.106;11.544;2023-02-01T12:56:51;4.90;99.90
14097;DHT22;7125;48.106;11.544;2023-02-01T12:59:26;4.90;99.90
14097;DHT22;7125;48.106;11.544;2023-02-01T13:01:59;4.90;99.90
14097;DHT22;7125;48.106;11.544;2023-02-01T13:04:33;4.90;99.90
14097;DHT22;7125;48.106;11.544;2023-02-01T13:07:07;5.00;99.90
14097;DHT22;7125;48.106;11.544;2023-02-01T13:09:41;5.00;99.90
14097;DHT22;7125;48.106;11.544;2023-02-01T13:12:13;5.00;99.90
14097;DHT22;7125;48.106;11.544;2023-02-01T13:14:48;5.00;99.90
14097;DHT22;7125;48.106;11.544;2023-02-01T13:17:22;5.10;99.90
14097;DHT22;7125;48.106;11.544;2023-02-01T13:19:53;5.10;99.90
14097;DHT22;7125;48.106;11.544;2023-02-01T13:22:26;5.10;99.90
14097;DHT22;7125;48.106;11.544;2023-02-01T13:24:56;5.10;99.90
14097;DHT22;7125;48.106;11.544;2023-02-01T13:27:26;5.10;99.90
14097;DHT22;7125;48.106;11.544;2023-02-01T13:30:00;5.10;99.90
14097;DHT22;7125;48.106;11.544;2023-02-01T13:32:46;5.20;99.90
14097;DHT22;7125;48.106;11.544;2023-02-01T13:35:27;5.10;99.90
14097;DHT22;7125;48.106;11.544;2023-02-01T13:38:06;5.20;99.90
14097;DHT22;7125;48.106;11.544;2023-02-01T13:40:39;5.20;99.90
14097;DHT22;7125;48.106;11.544;2023-02-01T13:43:12;5.20;99.90
14097;DHT22;7125;48.106;11.544;2023-02-01T13:45:47;5.30;99.90
14097;DHT22;7125;48.106;11.544;2023-02-01T13:48:21;5.30;99.90
14097;DHT22;7125;48.106;11.544;2023-02-01T13:50:55;5.30;99.90
14097;DHT22;7125;48.106;11.544;2023-02-01T13:53:27;5.30;99.90
14097;DHT22;7125;48.106;11.544;2023-02-01T13:55:58;5.30;99.90
14097;DHT22;7125;48.106;11.544;2023-02-01T13:58:36;5.20;99.90
14097;DHT22;7125;48.106;11.544;2023-02-01T14:07:26;5.20;99.90
14097;DHT22;7125;48.106;11.544;2023-02-01T14:09:53;5.20;99.90
14097;DHT22;7125;48.106;11.544;2023-02-01T14:12:48;5.10;99.90
14097;DHT22;7125;48.106;11.544;2023-02-01T14:15:22;5.10;99.90
14097;DHT22;7125;48.106;11.544;2023-02-01T14:17:50;5.00;99.90
14097;DHT22;7125;48.106;11.544;2023-02-01T14:20:48;5.00;99.90
14097;DHT22;7125;48.106;11.544;2023-02-01T14:23:29;5.00;99.90
14097;DHT22;7125;48.106;11.544;2023-02-01T14:26:15;4.90;99.90
14097;DHT22;7125;48.106;11.544;2023-02-01T14:28:46;4.90;99.90
14097;DHT22;7125;48.106;11.544;2023-02-01T14:31:32;4.90;99.90
14097;DHT22;7125;48.106;11.544;2023-02-01T14:34:02;4.90;99.90
14097;DHT22;7125;48.106;11.544;2023-02-01T14:36:41;4.90;99.90
14097;DHT22;7125;48.106;11.544;2023-02-01T14:39:29;4.90;99.90
14097;DHT22;7125;48.106;11.544;2023-02-01T14:42:00;4.90;99.90
14097;DHT22;7125;48.106;11.544;2023-02-01T14:44:30;4.90;99.90
14097;DHT22;7125;48.106;11.544;2023-02-01T14:47:34;4.90;99.90
14097;DHT22;7125;48.106;11.544;2023-02-01T14:50:31;4.90;99.90
14097;DHT22;7125;48.106;11.544;2023-02-01T14:53:13;4.90;99.90
14097;DHT22;7125;48.106;11.544;2023-02-01T14:55:46;4.90;99.90
14097;DHT22;7125;48.106;11.544;2023-02-01T14:58:19;4.90;99.90
14097;DHT22;7125;48.106;11.544;2023-02-01T15:00:52;4.90;99.90
14097;DHT22;7125;48.106;11.544;2023-02-01T15:03:38;4.80;99.90
14097;DHT22;7125;48.106;11.544;2023-02-01T15:08:58;4.80;99.90
14097;DHT22;7125;48.106;11.544;2023-02-01T15:11:27;4.80;99.90
14097;DHT22;7125;48.106;11.544;2023-02-01T15:13:55;4.80;99.90
14097;DHT22;7125;48.106;11.544;2023-02-01T15:16:24;4.80;99.90
14097;DHT22;7125;48.106;11.544;2023-02-01T15:19:07;4.70;99.90
14097;DHT22;7125;48.106;11.544;2023-02-01T15:21:43;4.70;99.90
14097;DHT22;7125;48.106;11.544;2023-02-01T15:24:12;4.60;99.90
14097;DHT22;7125;48.106;11.544;2023-02-01T15:26:40;4.50;99.90
14097;DHT22;7125;48.106;11.544;2023-02-01T15:29:12;4.40;99.90
14097;DHT22;7125;48.106;11.544;2023-02-01T15:31:41;4.40;99.90
14097;DHT22;7125;48.106;11.544;2023-02-01T15:34:10;4.30;99.90
14097;DHT22;7125;48.106;11.544;2023-02-01T15:36:38;4.20;99.90
14097;DHT22;7125;48.106;11.544;2023-02-01T15:39:13;4.20;99.90
14097;DHT22;7125;48.106;11.544;2023-02-01T15:41:47;4.10;99.90
14097;DHT22;7125;48.106;11.544;2023-02-01T15:44:19;3.90;99.90
14097;DHT22;7125;48.106;11.544;2023-02-01T15:46:49;3.80;99.90
14097;DHT22;7125;48.106;11.544;2023-02-01T15:49:21;3.70;99.90
14097;DHT22;7125;48.106;11.544;2023-02-01T15:51:50;3.60;99.90
14097;DHT22;7125;48.106;11.544;2023-02-01T15:54:22;3.50;99.90
14097;DHT22;7125;48.106;11.544;2023-02-01T15:56:54;3.50;99.90
14097;DHT22;7125;48.106;11.544;2023-02-01T15:59:24;3.50;99.90
14097;DHT22;7125;48.106;11.544;2023-02-01T16:01:57;3.50;99.90
14097;DHT22;7125;48.106;11.544;2023-02-01T16:04:25;3.60;99.90
14097;DHT22;7125;48.106;11.544;2023-02-01T16:06:56;3.60;99.90
14097;DHT22;7125;48.106;11.544;2023-02-01T16:09:36;3.60;99.90
14097;DHT22;7125;48.106;11.544;2023-02-01T16:12:23;3.70;99.90
14097;DHT22;7125;48.106;11.544;2023-02-01T16:14:53;3.60;99.90
14097;DHT22;7125;48.106;11.544;2023-02-01T16:17:22;3.60;99.90
14097;DHT22;7125;48.106;11.544;2023-02-01T16:19:50;3.60;99.90
14097;DHT22;7125;48.106;11.544;2023-02-01T16:22:17;3.70;99.90
14097;DHT22;7125;48.106;11.544;2023-02-01T16:24:44;3.70;99.90
14097;DHT22;7125;48.106;11.544;2023-02-01T16:27:12;3.70;99.90
14097;DHT22;7125;48.106;11.544;2023-02-01T16:29:39;3.70;99.90
14097;DHT22;7125;48.106;11.544;2023-02-01T16:32:11;3.70;99.90
14097;DHT22;7125;48.106;11.544;2023-02-01T16:34:41;3.80;99.90
14097;DHT22;7125;48.106;11.544;2023-02-01T16:37:11;3.80;99.90